Time;durP1;ratioP1;P1;durP2;ratioP2;P2;SDS_P1;SDS_P2;PMS_P1;PMS_P2;Temp;Humidity;BMP_temperature;BMP_pressure;BME280_temperature;BME280_humidity;BME280_pressure;Samples;Min_cycle;Max_cycle;Signal;HPM_P1;HPM_P2
2022/07/01 01:00:50;;;;;;;30.10;14.65;;;;;;;12.57;100.00;101379.38;4817285;29;20087;-85
2022/07/01 01:03:16;;;;;;;24.55;14.38;;;;;;;12.38;100.00;101348.59;4817850;29;20062;-86
2022/07/01 01:05:41;;;;;;;26.00;13.70;;;;;;;12.54;100.00;101366.47;4852602;29;20069;-85
2022/07/01 01:08:10;;;;;;;32.25;15.73;;;;;;;12.64;100.00;101394.47;4858258;29;20099;-85
2022/07/01 01:10:37;;;;;;;29.23;14.77;;;;;;;12.59;100.00;101400.63;4856136;29;20108;-84
2022/07/01 01:13:03;;;;;;;36.47;15.23;;;;;;;12.53;100.00;101382.84;4858022;29;20294;-84
2022/07/01 01:15:30;;;;;;;29.60;14.38;;;;;;;12.61;100.00;101394.97;4857622;29;20039;-84
2022/07/01 01:17:55;;;;;;;25.58;14.50;;;;;;;12.64;100.00;101407.91;4876354;29;20489;-84
2022/07/01 01:20:21;;;;;;;31.00;15.43;;;;;;;12.63;100.00;101411.66;4878528;29;20126;-85
2022/07/01 01:22:48;;;;;;;28.25;14.02;;;;;;;12.66;100.00;101419.22;4880164;29;20029;-85
2022/07/01 01:25:17;;;;;;;26.15;13.75;;;;;;;12.70;100.00;101428.41;4868183;29;20053;-85
2022/07/01 01:27:42;;;;;;;26.15;14.63;;;;;;;12.61;100.00;101417.31;4860578;29;20037;-84
2022/07/01 01:30:14;;;;;;;25.35;14.13;;;;;;;12.62;100.00;101420.81;4860921;29;20108;-84
2022/07/01 01:32:42;;;;;;;24.53;14.37;;;;;;;12.66;100.00;101424.59;4861744;29;20082;-85
2022/07/01 01:35:09;;;;;;;27.77;15.27;;;;;;;12.70;100.00;101421.13;4861094;29;20029;-84
2022/07/01 01:37:34;;;;;;;27.98;15.93;;;;;;;12.62;100.00;101418.09;4861169;29;20474;-84
2022/07/01 01:40:00;;;;;;;27.70;14.40;;;;;;;12.59;100.00;101408.69;4861037;29;20060;-85
2022/07/01 01:42:25;;;;;;;27.52;14.95;;;;;;;12.60;100.00;101412.22;4860465;29;20447;-84
2022/07/01 01:44:51;;;;;;;28.20;14.90;;;;;;;12.60;100.00;101415.69;4871539;29;20056;-84
2022/07/01 01:47:16;;;;;;;31.90;16.10;;;;;;;12.60;100.00;101429.13;4879789;29;20032;-85
2022/07/01 01:49:41;;;;;;;30.27;15.73;;;;;;;12.57;100.00;101416.19;4879864;29;20853;-84
2022/07/01 01:52:07;;;;;;;32.80;16.02;;;;;;;12.55;100.00;101411.09;4866076;29;20116;-85
2022/07/01 01:54:32;;;;;;;30.33;16.17;;;;;;;12.64;100.00;101413.28;4882033;29;20081;-85
2022/07/01 01:56:58;;;;;;;30.27;16.13;;;;;;;12.63;100.00;101414.34;4881146;29;20029;-85
2022/07/01 01:59:23;;;;;;;32.78;16.15;;;;;;;12.60;100.00;101420.28;4881039;29;20026;-84
2022/07/01 02:01:48;;;;;;;31.87;15.07;;;;;;;12.60;100.00;101414.91;4871830;29;20033;-85
2022/07/01 02:04:14;;;;;;;28.70;15.23;;;;;;;12.68;100.00;101427.84;4881355;29;20028;-85
2022/07/01 02:06:40;;;;;;;36.60;16.40;;;;;;;12.65;100.00;101418.44;4881151;29;20029;-85
2022/07/01 02:09:06;;;;;;;31.85;16.33;;;;;;;12.68;100.00;101412.53;4880919;29;20076;-86
2022/07/01 02:11:32;;;;;;;34.75;16.98;;;;;;;12.76;100.00;101424.69;4863127;29;20422;-85
2022/07/01 02:13:59;;;;;;;36.20;17.57;;;;;;;12.73;100.00;101438.66;4860760;29;20108;-85
2022/07/01 02:16:24;;;;;;;32.08;17.58;;;;;;;12.69;100.00;101443.72;4860972;29;20049;-86
2022/07/01 02:18:50;;;;;;;33.53;18.63;;;;;;;12.65;100.00;101437.25;4860551;29;20120;-85
2022/07/01 02:21:15;;;;;;;36.45;18.10;;;;;;;12.65;100.00;101444.50;4860620;29;20064;-85
2022/07/01 02:23:40;;;;;;;36.23;18.97;;;;;;;12.62;100.00;101453.88;4861260;29;20037;-85
2022/07/01 02:26:05;;;;;;;33.47;16.80;;;;;;;12.56;100.00;101462.97;4878254;29;20036;-85
2022/07/01 02:28:31;;;;;;;36.20;17.67;;;;;;;12.47;100.00;101465.31;4879022;29;20029;-85
2022/07/01 02:30:59;;;;;;;41.17;18.70;;;;;;;12.61;100.00;101464.88;4872253;29;20112;-85
2022/07/01 02:33:30;;;;;;;36.22;18.60;;;;;;;12.64;100.00;101449.06;4860394;29;20053;-85
2022/07/01 02:35:55;;;;;;;33.58;17.98;;;;;;;12.65;100.00;101431.88;4861128;29;20030;-85
2022/07/01 02:38:21;;;;;;;35.50;18.63;;;;;;;12.65;100.00;101428.34;4861112;29;20379;-85
2022/07/01 02:40:46;;;;;;;36.38;18.60;;;;;;;12.72;100.00;101432.44;4868360;29;20504;-85
2022/07/01 02:43:11;;;;;;;37.40;17.07;;;;;;;12.75;100.00;101443.75;4879025;29;20131;-85
2022/07/01 02:45:37;;;;;;;33.37;17.30;;;;;;;12.69;100.00;101424.88;4878696;29;20056;-85
2022/07/01 02:48:02;;;;;;;32.93;16.97;;;;;;;12.76;100.00;101426.56;4866765;29;20069;-85
2022/07/01 02:50:28;;;;;;;33.63;17.27;;;;;;;12.79;100.00;101444.88;4860369;29;20042;-85
2022/07/01 02:52:54;;;;;;;34.50;16.97;;;;;;;12.76;100.00;101446.22;4878628;29;20033;-85
2022/07/01 02:55:25;;;;;;;34.28;17.02;;;;;;;12.72;100.00;101439.72;4866391;29;20517;-85
2022/07/01 02:57:51;;;;;;;31.30;16.13;;;;;;;12.68;100.00;101443.97;4859444;29;20030;-84
2022/07/01 03:00:19;;;;;;;33.60;16.00;;;;;;;12.71;100.00;101462.28;4843163;29;20343;-85
2022/07/01 03:02:44;;;;;;;34.63;16.38;;;;;;;12.67;100.00;101456.63;4860150;29;20032;-85
2022/07/01 03:05:13;;;;;;;33.70;15.87;;;;;;;12.65;100.00;101449.88;4859333;29;20026;-85
2022/07/01 03:07:39;;;;;;;38.60;17.25;;;;;;;12.71;100.00;101459.59;4859833;29;20033;-85
2022/07/01 03:10:06;;;;;;;31.65;17.35;;;;;;;12.64;100.00;101453.63;4859785;29;20053;-85
2022/07/01 03:12:39;;;;;;;38.90;17.90;;;;;;;12.69;100.00;101459.84;4858891;29;20025;-84
2022/07/01 03:15:12;;;;;;;31.67;16.98;;;;;;;12.71;100.00;101464.97;4878438;29;20040;-85
2022/07/01 03:17:40;;;;;;;36.58;17.95;;;;;;;12.72;100.00;101478.16;4871485;29;20033;-85
2022/07/01 03:20:08;;;;;;;37.45;17.63;;;;;;;12.65;100.00;101466.00;4861863;29;20090;-85
2022/07/01 03:22:34;;;;;;;41.13;18.40;;;;;;;12.65;100.00;101456.06;4871799;29;20088;-85
2022/07/01 03:25:00;;;;;;;40.83;20.33;;;;;;;12.68;100.00;101450.19;4876153;29;20290;-85
2022/07/01 03:27:26;;;;;;;41.15;20.50;;;;;;;12.72;100.00;101463.91;4877907;29;20036;-85
2022/07/01 03:29:52;;;;;;;41.10;19.30;;;;;;;12.80;100.00;101468.00;4871790;29;20034;-85
2022/07/01 03:32:18;;;;;;;40.03;19.83;;;;;;;12.78;100.00;101459.38;4859095;29;20338;-85
2022/07/01 03:34:46;;;;;;;40.90;19.75;;;;;;;12.82;100.00;101466.69;4859440;29;20030;-85
2022/07/01 03:37:13;;;;;;;40.05;19.13;;;;;;;12.81;100.00;101473.13;4859045;29;20037;-85
2022/07/01 03:39:39;;;;;;;37.90;19.10;;;;;;;12.84;100.00;101496.03;4859238;29;20037;-85
2022/07/01 03:42:06;;;;;;;40.30;20.52;;;;;;;12.77;100.00;101490.03;4875291;29;20033;-85
2022/07/01 03:44:32;;;;;;;40.55;20.15;;;;;;;12.81;100.00;101494.63;4876264;29;20037;-85
2022/07/01 03:46:58;;;;;;;39.88;19.67;;;;;;;12.79;100.00;101490.59;4857854;29;20447;-85
2022/07/01 03:49:23;;;;;;;39.90;21.07;;;;;;;12.92;100.00;101510.88;4858348;29;20062;-84
2022/07/01 03:51:52;;;;;;;42.03;21.25;;;;;;;12.88;100.00;101513.25;4855435;29;20143;-85
2022/07/01 03:54:30;;;;;;;38.47;20.17;;;;;;;12.93;100.00;101515.19;4861612;29;20503;-85
2022/07/01 03:56:57;;;;;;;42.25;19.55;;;;;;;12.96;100.00;101515.47;4873519;29;20029;-85
2022/07/01 03:59:35;;;;;;;39.77;19.00;;;;;;;13.00;100.00;101521.97;4858488;29;20165;-85
2022/07/01 04:02:00;;;;;;;39.87;19.63;;;;;;;13.01;100.00;101522.78;4858149;29;20314;-85
2022/07/01 04:04:27;;;;;;;42.50;20.13;;;;;;;12.98;100.00;101524.09;4857839;29;20102;-85
2022/07/01 04:06:58;;;;;;;35.30;20.27;;;;;;;12.96;100.00;101517.38;4853639;29;20040;-84
2022/07/01 04:09:24;;;;;;;40.20;19.67;;;;;;;12.97;100.00;101516.28;4866956;29;20036;-82
2022/07/01 04:11:50;;;;;;;39.83;20.45;;;;;;;12.96;100.00;101512.78;4868604;29;20103;-82
2022/07/01 04:14:16;;;;;;;38.28;20.30;;;;;;;12.94;100.00;101514.13;4858496;29;20516;-82
2022/07/01 04:16:42;;;;;;;39.43;20.33;;;;;;;12.85;100.00;101509.19;4853656;29;20109;-82
2022/07/01 04:19:09;;;;;;;33.08;20.05;;;;;;;12.79;100.00;101518.28;4858774;29;20237;-82
2022/07/01 04:24:20;;;;;;;40.08;21.75;;;;;;;12.65;100.00;101533.22;4856982;29;20049;-83
2022/07/01 04:26:45;;;;;;;41.00;22.40;;;;;;;12.75;100.00;101530.63;4857650;29;20029;-83
2022/07/01 04:29:11;;;;;;;44.80;23.37;;;;;;;12.75;100.00;101514.50;4859622;29;20305;-83
2022/07/01 04:31:37;;;;;;;44.27;24.13;;;;;;;12.81;100.00;101521.53;4867933;29;20033;-83
2022/07/01 04:34:06;;;;;;;50.80;24.27;;;;;;;12.83;100.00;101519.41;4858369;29;20076;-85
2022/07/01 04:36:32;;;;;;;48.63;24.58;;;;;;;12.83;100.00;101522.09;4868514;29;20041;-84
2022/07/01 04:38:57;;;;;;;45.28;24.42;;;;;;;12.87;100.00;101523.19;4874803;29;20112;-82
2022/07/01 04:44:08;;;;;;;37.87;19.40;;;;;;;12.83;100.00;101537.44;4852921;29;20270;-83
2022/07/01 04:46:34;;;;;;;38.47;19.77;;;;;;;12.80;100.00;101540.63;4861623;29;20493;-83
2022/07/01 04:49:03;;;;;;;34.22;19.30;;;;;;;12.84;100.00;101545.22;4867293;29;20073;-83
2022/07/01 04:51:28;;;;;;;37.23;17.90;;;;;;;12.91;100.00;101538.84;4842805;29;20034;-82
2022/07/01 04:53:54;;;;;;;31.98;18.05;;;;;;;12.96;100.00;101528.13;4859762;29;20037;-83
2022/07/01 04:56:20;;;;;;;32.53;17.47;;;;;;;13.06;100.00;101530.88;4858964;29;20029;-85
2022/07/01 04:58:45;;;;;;;32.22;16.63;;;;;;;13.16;100.00;101530.16;4862530;29;20039;-83
2022/07/01 05:01:11;;;;;;;29.47;15.60;;;;;;;13.15;100.00;101531.22;4840407;29;20029;-83
2022/07/01 05:03:36;;;;;;;28.60;16.00;;;;;;;13.12;100.00;101520.97;4858242;29;20047;-83
2022/07/01 05:06:02;;;;;;;32.93;15.97;;;;;;;13.33;100.00;101535.38;4855169;29;20294;-83
2022/07/01 05:08:28;;;;;;;25.40;14.77;;;;;;;13.34;100.00;101534.31;4857860;29;20033;-82
2022/07/01 05:10:53;;;;;;;25.63;13.98;;;;;;;13.40;100.00;101554.00;4862278;29;20413;-83
2022/07/01 05:13:34;;;;;;;26.03;13.33;;;;;;;13.40;100.00;101545.94;4857142;29;20022;-83
2022/07/01 05:16:00;;;;;;;25.25;12.40;;;;;;;13.49;100.00;101555.16;4860362;29;20516;-83
2022/07/01 05:23:53;;;;;;;21.58;12.15;;;;;;;13.76;100.00;101546.97;4846111;29;20039;-84
2022/07/01 05:26:18;;;;;;;27.23;13.00;;;;;;;13.78;100.00;101544.03;4857772;29;20393;-83
2022/07/01 05:28:52;;;;;;;24.77;11.87;;;;;;;13.80;100.00;101535.69;4856465;29;20549;-83
2022/07/01 05:31:18;;;;;;;17.83;11.20;;;;;;;13.89;100.00;101543.00;4859706;29;20033;-83
2022/07/01 05:33:43;;;;;;;15.07;10.88;;;;;;;13.83;100.00;101544.03;4876422;29;20116;-84
2022/07/01 05:36:10;;;;;;;18.67;10.90;;;;;;;13.78;100.00;101541.34;4858366;29;20078;-85
2022/07/01 05:38:35;;;;;;;19.00;10.88;;;;;;;13.82;100.00;101536.22;4841105;29;20017;-83
2022/07/01 05:41:03;;;;;;;18.10;11.40;;;;;;;13.90;100.00;101533.84;4839837;29;20041;-83
2022/07/01 05:43:30;;;;;;;19.45;10.27;;;;;;;13.85;100.00;101531.13;4851580;29;20041;-85
2022/07/01 05:45:55;;;;;;;18.02;10.55;;;;;;;13.88;100.00;101538.69;4858292;29;20036;-83
2022/07/01 05:48:21;;;;;;;17.23;10.53;;;;;;;13.84;100.00;101540.28;4856342;29;20037;-85
2022/07/01 05:50:47;;;;;;;17.38;10.98;;;;;;;13.81;100.00;101543.47;4846905;29;20106;-85
2022/07/01 05:53:13;;;;;;;15.35;10.68;;;;;;;13.63;100.00;101529.41;4850271;29;20042;-83
2022/07/01 05:55:38;;;;;;;18.67;10.23;;;;;;;13.71;100.00;101552.31;4852777;29;20067;-82
2022/07/01 05:58:03;;;;;;;15.87;10.80;;;;;;;13.91;100.00;101550.81;4853873;29;20036;-82
2022/07/01 06:00:29;;;;;;;17.50;11.23;;;;;;;14.82;100.00;101553.22;4855232;29;20030;-82
2022/07/01 06:02:54;;;;;;;17.67;11.20;;;;;;;15.84;100.00;101550.66;4855319;29;20120;-83
2022/07/01 06:05:20;;;;;;;14.80;10.53;;;;;;;16.61;96.70;101555.72;4856731;29;20041;-82
2022/07/01 06:07:45;;;;;;;15.18;10.02;;;;;;;16.75;94.26;101558.63;4859922;29;20033;-82
2022/07/01 06:10:11;;;;;;;12.57;9.53;;;;;;;16.69;93.81;101559.72;4859457;29;20034;-81
2022/07/01 06:12:38;;;;;;;18.03;10.10;;;;;;;16.60;94.12;101559.53;4855378;29;20029;-81
2022/07/01 06:15:04;;;;;;;15.02;9.10;;;;;;;16.48;92.70;101551.75;4860165;29;20541;-82
2022/07/01 06:17:29;;;;;;;22.38;9.68;;;;;;;16.32;93.59;101559.16;4858776;29;20478;-82
2022/07/01 06:19:55;;;;;;;18.77;10.20;;;;;;;16.28;95.34;101549.97;4865727;29;20125;-81
2022/07/01 06:22:20;;;;;;;19.07;9.57;;;;;;;16.19;93.92;101551.63;4859447;29;20037;-81
2022/07/01 06:24:46;;;;;;;16.10;8.90;;;;;;;15.95;95.23;101546.06;4859310;29;20365;-81
2022/07/01 06:27:12;;;;;;;17.60;10.13;;;;;;;15.79;94.71;101551.50;4842254;29;20448;-81
2022/07/01 06:29:37;;;;;;;14.50;8.73;;;;;;;15.60;95.56;101546.69;4849211;29;20037;-81
2022/07/01 06:32:05;;;;;;;17.05;9.07;;;;;;;15.55;96.50;101546.69;4859218;29;20033;-82
2022/07/01 06:34:31;;;;;;;13.50;9.23;;;;;;;15.48;96.54;101542.66;4863084;29;20093;-81
2022/07/01 06:37:00;;;;;;;12.73;8.95;;;;;;;15.55;99.29;101533.19;4875023;29;20036;-81
2022/07/01 06:39:25;;;;;;;15.50;8.68;;;;;;;15.65;96.25;101540.47;4857903;29;20057;-82
2022/07/01 06:41:51;;;;;;;13.18;8.75;;;;;;;15.48;97.03;101526.47;4848121;29;20088;-82
2022/07/01 06:44:17;;;;;;;14.02;8.13;;;;;;;15.54;96.46;101536.19;4859802;29;20045;-82
2022/07/01 06:46:42;;;;;;;11.73;7.53;;;;;;;15.79;98.54;101548.81;4870118;29;20041;-83
2022/07/01 06:49:07;;;;;;;15.07;7.73;;;;;;;15.80;96.90;101545.03;4849819;29;20037;-83
2022/07/01 06:51:33;;;;;;;14.50;7.57;;;;;;;15.90;96.93;101538.78;4860707;29;20033;-83
2022/07/01 06:53:58;;;;;;;13.23;7.30;;;;;;;15.93;95.34;101535.53;4848107;29;20042;-82
2022/07/01 06:56:23;;;;;;;9.68;6.85;;;;;;;15.99;95.41;101541.75;4857447;29;20052;-83
2022/07/01 06:58:48;;;;;;;9.83;6.70;;;;;;;16.07;95.10;101543.06;4859185;29;20029;-83
2022/07/01 07:01:14;;;;;;;14.50;5.97;;;;;;;16.14;92.62;101546.28;4869155;29;20056;-84
2022/07/01 07:03:39;;;;;;;10.40;5.83;;;;;;;16.17;92.49;101554.63;4863110;29;20680;-84
2022/07/01 07:06:04;;;;;;;14.17;6.50;;;;;;;16.13;91.82;101548.16;4859372;29;20050;-86
2022/07/01 07:08:31;;;;;;;11.77;6.23;;;;;;;16.23;92.56;101558.09;4859146;29;20054;-84
2022/07/01 07:10:58;;;;;;;9.77;5.30;;;;;;;16.26;89.92;101564.84;4842153;29;20109;-84
2022/07/01 07:13:23;;;;;;;7.22;5.40;;;;;;;16.37;90.95;101582.66;4858800;29;20086;-84
2022/07/01 07:15:48;;;;;;;11.17;4.83;;;;;;;16.51;89.00;101585.56;4859708;29;20029;-85
2022/07/01 07:18:14;;;;;;;12.27;4.60;;;;;;;16.67;88.55;101594.38;4867278;29;20056;-85
2022/07/01 07:20:39;;;;;;;10.47;4.67;;;;;;;16.50;86.08;101587.44;4869492;29;20064;-85
2022/07/01 07:23:05;;;;;;;7.67;4.30;;;;;;;16.47;86.88;101585.28;4888223;29;20044;-85
2022/07/01 07:25:31;;;;;;;10.88;4.25;;;;;;;16.53;86.81;101579.84;4883414;29;20060;-84
2022/07/01 07:27:56;;;;;;;5.63;3.30;;;;;;;16.55;84.31;101577.69;4878764;29;20482;-86
2022/07/01 07:30:22;;;;;;;7.30;3.23;;;;;;;16.63;83.12;101577.91;4845978;29;20501;-85
2022/07/01 07:32:47;;;;;;;8.23;3.27;;;;;;;16.73;84.68;101579.72;4860100;29;20033;-85
2022/07/01 07:35:13;;;;;;;3.83;2.33;;;;;;;16.85;82.86;101594.78;4876594;29;20032;-85
2022/07/01 07:37:42;;;;;;;9.93;2.73;;;;;;;16.98;81.37;101596.88;4860446;29;20030;-85
2022/07/01 07:40:12;;;;;;;4.22;2.17;;;;;;;17.17;81.25;101598.91;4858680;29;20479;-85
2022/07/01 07:42:38;;;;;;;7.53;2.47;;;;;;;17.36;81.13;101610.66;4864543;29;20762;-86
2022/07/01 07:45:06;;;;;;;4.47;1.95;;;;;;;17.46;78.42;101603.53;4859889;29;20074;-85
2022/07/01 07:47:32;;;;;;;3.53;1.80;;;;;;;17.48;77.25;101617.63;4858809;29;20041;-85
2022/07/01 07:49:57;;;;;;;4.93;1.80;;;;;;;17.46;77.37;101609.75;4857819;29;20309;-86
2022/07/01 07:52:22;;;;;;;7.37;1.87;;;;;;;17.34;75.35;101602.03;4857633;29;20033;-85
2022/07/01 07:54:48;;;;;;;6.03;1.80;;;;;;;17.27;75.30;101612.38;4857490;29;20442;-86
2022/07/01 07:57:13;;;;;;;4.40;1.57;;;;;;;17.19;76.08;101616.50;4857459;29;20049;-85
2022/07/01 07:59:39;;;;;;;4.40;1.43;;;;;;;17.32;77.61;101617.75;4857690;29;20033;-85
2022/07/01 08:02:04;;;;;;;5.60;1.67;;;;;;;17.44;76.69;101620.06;4862699;29;20048;-84
2022/07/01 08:04:30;;;;;;;4.10;1.70;;;;;;;17.57;76.95;101615.88;4839354;29;20111;-85
2022/07/01 08:06:55;;;;;;;7.07;1.50;;;;;;;17.76;74.73;101615.16;4858745;29;20034;-85
2022/07/01 08:09:20;;;;;;;2.13;1.30;;;;;;;18.01;74.58;101614.91;4858449;29;20033;-84
2022/07/01 08:11:46;;;;;;;4.22;1.52;;;;;;;18.42;75.60;101623.66;4858030;29;20025;-87
2022/07/01 08:14:12;;;;;;;3.77;1.30;;;;;;;18.76;70.30;101628.84;4857361;29;20041;-87
2022/07/01 08:16:46;;;;;;;2.30;1.10;;;;;;;18.92;70.09;101639.47;4861528;29;20034;-85
2022/07/01 08:19:11;;;;;;;3.60;1.53;;;;;;;19.17;68.12;101638.31;4852562;29;20128;-85
2022/07/01 08:21:37;;;;;;;2.43;1.10;;;;;;;19.35;66.65;101641.31;4859088;29;20434;-83
2022/07/01 08:24:02;;;;;;;4.03;1.30;;;;;;;19.22;64.67;101634.72;4858787;29;20394;-83
2022/07/01 08:26:37;;;;;;;6.03;1.23;;;;;;;19.46;66.00;101648.16;4857954;29;20021;-83
2022/07/01 08:29:02;;;;;;;6.40;1.30;;;;;;;19.47;64.71;101649.78;4855415;29;20447;-84
2022/07/01 08:31:28;;;;;;;4.72;1.05;;;;;;;19.49;64.10;101650.28;4848295;29;20105;-83
2022/07/01 08:33:53;;;;;;;4.77;0.97;;;;;;;19.53;65.38;101645.06;4858735;29;20113;-84
2022/07/01 08:36:18;;;;;;;4.50;0.93;;;;;;;19.65;61.31;101641.84;4863319;29;20033;-84
2022/07/01 08:38:44;;;;;;;3.90;0.80;;;;;;;19.89;63.65;101659.94;4863381;29;20390;-84
2022/07/01 08:41:09;;;;;;;2.73;1.00;;;;;;;19.95;58.47;101653.28;4858012;29;20406;-84
2022/07/01 08:43:35;;;;;;;2.42;0.77;;;;;;;19.90;58.51;101667.00;4857355;29;20048;-85
2022/07/01 08:46:01;;;;;;;5.00;1.10;;;;;;;19.76;58.01;101654.16;4855518;29;20089;-83
2022/07/01 08:48:28;;;;;;;0.93;0.60;;;;;;;19.64;57.38;101654.63;4857609;29;20478;-82
2022/07/01 08:50:55;;;;;;;5.13;1.65;;;;;;;19.68;58.29;101663.00;4857491;29;20053;-82
2022/07/01 08:53:20;;;;;;;2.43;1.03;;;;;;;19.86;60.20;101674.91;4856846;29;20116;-83
2022/07/01 08:58:30;;;;;;;2.80;0.82;;;;;;;20.19;58.99;101674.06;4864316;29;20053;-84
2022/07/01 09:01:15;;;;;;;4.00;1.00;;;;;;;20.47;63.40;101682.19;4875966;29;20450;-83
2022/07/01 09:03:41;;;;;;;2.30;0.90;;;;;;;20.41;55.74;101670.59;4860337;29;20030;-84
2022/07/01 09:06:13;;;;;;;3.63;1.00;;;;;;;20.41;57.88;101682.31;4839503;29;20040;-83
2022/07/01 09:08:38;;;;;;;2.17;0.85;;;;;;;20.48;56.38;101662.03;4838973;29;20206;-84
2022/07/01 09:11:26;;;;;;;6.17;1.03;;;;;;;20.71;57.84;101665.63;4840957;29;20026;-84
2022/07/01 09:14:09;;;;;;;3.38;1.00;;;;;;;20.84;58.56;101672.16;4846574;29;20048;-86
2022/07/01 09:17:06;;;;;;;6.18;1.05;;;;;;;;;;4845938;29;20030;-86
2022/07/01 09:19:37;;;;;;;2.63;1.10;;;;;;;21.11;54.89;101667.72;4823570;29;20395;-86
2022/07/01 09:22:04;;;;;;;3.45;1.20;;;;;;;21.24;55.83;101671.50;4865841;29;20025;-84
2022/07/01 09:24:37;;;;;;;3.10;1.23;;;;;;;21.38;52.25;101680.41;4873247;29;20494;-84
2022/07/01 09:27:16;;;;;;;5.73;1.43;;;;;;;21.61;53.40;101675.78;4870025;29;20466;-85
2022/07/01 09:29:51;;;;;;;3.53;1.47;;;;;;;21.65;52.79;101677.88;4857578;29;20314;-85
2022/07/01 09:32:18;;;;;;;5.97;1.55;;;;;;;21.48;55.53;101671.19;4855877;29;20035;-85
2022/07/01 09:34:50;;;;;;;4.93;1.30;;;;;;;21.51;55.09;101680.66;4857014;29;20026;-85
2022/07/01 09:37:20;;;;;;;3.85;1.25;;;;;;;21.44;50.52;101681.09;4853095;29;20042;-85
2022/07/01 09:39:51;;;;;;;3.78;1.20;;;;;;;21.45;52.57;101678.03;4860463;29;20029;-84
2022/07/01 09:42:21;;;;;;;3.33;1.00;;;;;;;21.22;50.74;101676.47;4859833;29;20363;-85
2022/07/01 09:44:52;;;;;;;4.65;1.13;;;;;;;21.36;52.66;101685.38;4843471;29;20033;-85
2022/07/01 09:47:22;;;;;;;5.38;1.15;;;;;;;21.58;50.95;101691.94;4860038;29;20045;-86
2022/07/01 09:49:47;;;;;;;1.98;1.33;;;;;;;21.89;50.75;101677.50;4859963;29;20391;-85
2022/07/01 09:52:13;;;;;;;5.27;1.63;;;;;;;22.00;51.51;101669.84;4860576;29;20026;-85
2022/07/01 09:54:38;;;;;;;3.00;1.30;;;;;;;22.18;50.00;101682.44;4848906;29;20093;-84
2022/07/01 09:57:04;;;;;;;2.72;1.20;;;;;;;21.99;48.42;101688.16;4855091;29;20049;-84
2022/07/01 09:59:30;;;;;;;4.33;1.30;;;;;;;22.09;48.00;101684.34;4864804;29;20089;-86
2022/07/01 10:01:55;;;;;;;2.05;1.00;;;;;;;22.24;46.88;101689.38;4871434;29;20038;-85
2022/07/01 10:04:21;;;;;;;2.40;0.90;;;;;;;22.56;48.14;101691.22;4867900;29;20094;-86
2022/07/01 10:06:49;;;;;;;8.02;1.30;;;;;;;22.98;49.08;101695.09;4848860;29;20049;-85
2022/07/01 10:09:55;;;;;;;4.32;1.00;;;;;;;23.28;50.60;101698.00;4851660;29;20418;-86
2022/07/01 10:12:21;;;;;;;4.63;1.10;;;;;;;23.29;46.06;101701.53;4853874;29;20556;-86
2022/07/01 10:14:48;;;;;;;5.93;1.30;;;;;;;23.36;47.46;101707.34;4861286;29;20377;-85
2022/07/01 10:17:41;;;;;;;3.33;1.23;;;;;;;23.62;47.64;101724.81;4844400;29;20497;-85
2022/07/01 10:20:11;;;;;;;3.50;1.40;;;;;;;23.34;46.28;101720.53;4799005;29;20319;-87
2022/07/01 10:22:38;;;;;;;3.55;1.02;;;;;;;22.69;46.20;101717.56;4859775;29;20863;-87
2022/07/01 10:25:30;;;;;;;3.45;0.95;;;;;;;22.47;48.20;101732.16;4864671;29;20505;-85
2022/07/01 10:28:26;;;;;;;4.78;1.20;;;;;;;22.33;48.65;101733.06;4876208;29;20485;-86
2022/07/01 10:31:02;;;;;;;6.10;1.45;;;;;;;22.29;48.57;101742.19;4844709;29;20045;-86
2022/07/01 10:33:33;;;;;;;3.08;1.13;;;;;;;22.20;49.08;101729.31;4857056;29;20037;-86
2022/07/01 10:36:24;;;;;;;4.03;1.10;;;;;;;22.26;50.40;101731.91;4876751;29;20062;-85
2022/07/01 10:39:03;;;;;;;3.22;1.10;;;;;;;22.38;48.71;101730.16;4862644;29;20097;-86
2022/07/01 10:41:32;;;;;;;5.50;1.20;;;;;;;22.54;48.95;101722.38;4859809;29;20030;-86
2022/07/01 10:43:58;;;;;;;5.60;0.83;;;;;;;22.97;49.09;101730.97;4860391;29;20026;-85
2022/07/01 10:47:03;;;;;;;8.03;1.10;;;;;;;23.25;48.74;101727.91;4854487;29;20320;-86
2022/07/01 10:49:41;;;;;;;3.78;0.95;;;;;;;23.85;47.84;101728.13;4850171;29;20029;-87
2022/07/01 10:52:07;;;;;;;2.90;1.08;;;;;;;24.30;46.49;101733.09;4849404;29;20498;-86
2022/07/01 10:54:36;;;;;;;3.35;1.13;;;;;;;24.43;44.34;101727.75;4857944;29;20069;-86
2022/07/01 10:57:16;;;;;;;3.20;1.05;;;;;;;24.41;43.50;101727.28;4856371;29;20033;-87
2022/07/01 10:59:47;;;;;;;2.72;1.00;;;;;;;24.35;41.99;101716.50;4857900;29;20034;-87
2022/07/01 11:02:15;;;;;;;2.95;1.10;;;;;;;24.31;43.03;101723.75;4855699;29;20038;-87
2022/07/01 11:04:40;;;;;;;4.13;1.10;;;;;;;24.32;43.35;101714.41;4858935;29;20498;-87
2022/07/01 11:07:11;;;;;;;2.73;1.00;;;;;;;24.38;44.09;101719.72;4871315;29;20149;-85
2022/07/01 11:09:36;;;;;;;5.32;0.93;;;;;;;24.05;42.78;101712.94;4859639;29;20046;-85
2022/07/01 11:12:03;;;;;;;5.43;1.27;;;;;;;23.72;43.14;101711.59;4856003;29;20029;-85
2022/07/01 11:14:29;;;;;;;3.03;1.08;;;;;;;23.42;43.00;101706.03;4851422;29;20029;-86
2022/07/01 11:16:57;;;;;;;2.60;1.00;;;;;;;23.46;44.33;101708.13;4853986;29;20039;-87
2022/07/01 11:19:24;;;;;;;3.83;1.00;;;;;;;23.62;42.27;101702.94;4858462;29;20057;-86
2022/07/01 11:21:50;;;;;;;4.05;1.10;;;;;;;23.73;43.51;101694.06;4841473;29;20030;-87
2022/07/01 11:24:19;;;;;;;3.25;1.20;;;;;;;23.62;43.26;101717.41;4853790;29;20057;-87
2022/07/01 11:26:45;;;;;;;4.80;1.20;;;;;;;23.52;42.97;101702.13;4858223;29;20121;-88
2022/07/01 11:29:11;;;;;;;3.53;0.90;;;;;;;24.06;43.58;101697.34;4867629;29;20132;-90
2022/07/01 11:31:36;;;;;;;5.82;1.20;;;;;;;24.35;43.63;101688.31;4863813;29;20074;-91
2022/07/01 11:34:03;;;;;;;2.97;0.80;;;;;;;24.66;42.84;101706.31;4859906;29;20087;-90
2022/07/01 11:39:21;;;;;;;3.80;0.98;;;;;;;24.96;43.34;101695.31;4860613;29;20417;-94
2022/07/01 11:41:47;;;;;;;2.78;1.10;;;;;;;25.03;40.15;101684.63;4864382;29;20037;-91
2022/07/01 11:44:12;;;;;;;3.03;0.90;;;;;;;25.11;40.32;101680.19;4859469;29;20035;-91
2022/07/01 11:46:37;;;;;;;3.20;0.87;;;;;;;25.10;40.73;101686.81;4857745;29;20036;-88
2022/07/01 11:49:15;;;;;;;3.97;1.10;;;;;;;24.97;43.30;101694.16;4859196;29;20048;-91
2022/07/01 11:51:41;;;;;;;2.33;1.05;;;;;;;24.89;42.30;101686.84;4859361;29;20059;-92
2022/07/01 11:54:06;;;;;;;4.45;0.93;;;;;;;25.23;40.81;101691.19;4859667;29;20026;-93
2022/07/01 11:56:38;;;;;;;5.67;1.07;;;;;;;25.25;39.92;101682.63;4857918;29;20077;-91
2022/07/01 11:59:03;;;;;;;2.60;1.20;;;;;;;25.46;40.62;101692.78;4871280;29;20309;-90
2022/07/01 12:01:32;;;;;;;3.30;0.90;;;;;;;25.23;38.53;101690.41;4858431;29;20037;-90
2022/07/01 12:03:59;;;;;;;2.88;0.90;;;;;;;25.18;38.93;101683.19;4858483;29;20038;-90
2022/07/01 12:06:26;;;;;;;1.87;0.90;;;;;;;25.38;40.26;101692.50;4859190;29;20029;-89
2022/07/01 12:08:53;;;;;;;2.50;1.17;;;;;;;25.77;39.52;101692.25;4860157;29;20338;-90
2022/07/01 12:11:21;;;;;;;4.10;1.23;;;;;;;25.72;39.07;101695.22;4859899;29;20120;-90
2022/07/01 12:13:47;;;;;;;6.78;1.13;;;;;;;25.45;39.05;101691.19;4848889;29;20029;-89
2022/07/01 12:16:17;;;;;;;1.90;1.05;;;;;;;25.29;40.92;101689.03;4842665;29;20036;-90
2022/07/01 12:18:59;;;;;;;2.70;1.10;;;;;;;25.43;40.57;101691.50;4858824;29;20148;-94
2022/07/01 12:21:25;;;;;;;4.07;1.05;;;;;;;25.65;40.02;101692.25;4841687;29;20061;-91
2022/07/01 12:24:05;;;;;;;3.40;1.10;;;;;;;25.92;40.43;101709.22;4858180;29;20061;-94
2022/07/01 12:26:30;;;;;;;3.13;1.10;;;;;;;26.12;37.61;101702.03;4857898;29;20029;-91
2022/07/01 12:28:55;;;;;;;2.03;0.80;;;;;;;26.41;37.71;101713.91;4866074;29;20040;-91
2022/07/01 12:31:22;;;;;;;4.23;1.00;;;;;;;26.11;38.81;101694.91;4859122;29;20038;-91
2022/07/01 12:33:52;;;;;;;3.08;1.08;;;;;;;26.04;39.75;101695.47;4858705;29;20482;-91